Charlwood, United Kingdom

1:57 PM GMT on December 05, 2016 (GMT +0000)
Gatwick | | Change Station

Elev 203 ft 51.15 °N, 0.19 °W | Updated 7 minutes ago

Clear
Clear
46 °F
Feels Like 43 °F
N
7
Wind Variable Wind from ENE

Today
High -- | Low -- °F
--% Chance of Precip.
Yesterday
High -- | Low -- °F
Precip. -- in
Pressure 30.21 in
Visibility 5.6 miles
Clouds
Windchill 43 °F
Dew Point 39 °F
Humidity 76%
Rainfall 0.00 in
Snow Depth Not available.
7:48 AM 3:54 PM
Waxing Crescent, 32% visible
METAR EGKK 051350Z 07006KT 040V110 9000 NSC 08/04 Q1023
Pressure 30.21 in
Visibility 5.6 miles
Clouds
Windchill 43 °F
Dew Point 39 °F
Humidity 76%
Rainfall 0.00 in
Snow Depth Not available.
7:48 AM 3:54 PM
Waxing Crescent, 32% visible
METAR EGKK 051350Z 07006KT 040V110 9000 NSC 08/04 Q1023

10-Day Weather Forecast

×

Almanac

Astronomy

Dec. 05, 2016 Rise Set
Actual Time
Civil Twilight
Nautical Twilight
Astronomical Twilight
Moon
Length of Visible Light
Length of Day
Tomorrow will be .
, % of the Moon is Illuminated

Today's Extremes

Country Highs Country Lows

Community

WunderPhotos

Upload Photos

1,955,780 photos uploaded!

WunderBlog® & News

Nearby

Air Quality

  Air Quality AQ Index Pollutant
Not available.

Snow Depth

Station Depth Elevation

Earthquake Activity

City Distance Mag. Time & Date
Minimum magnitude displayed is 2.5.

Coastal Water Temperatures

Place Temperature

Stations

Nearby Weather Stations

Station Location Temp. Windchill Dew Point Humidity Wind Precip. Elev Updated Type